Hovedside
METAR-TAF:

METAR-TAF

Lufthavner :

The Dalles, Oregon, USA

breddegrad: 45-37-07N, lengdegrad: 121-10-02W, høyde over havet: 75 m

Gjeldene værobservasjon

Denne rapporten ble laget for 20 minutter siden, klokken 17:53 UTC
Vind 3 kt fra skiftende retning
Temperatur 14°C
Luftfuktighet 44%
Trykk 1020 hPa
Sikt: 16.1 km
Skyfri himmel

METAR: KDLS 091753Z AUTO VRB03KT 10SM CLR 14/02 A3013 RMK AO2 SLP202 T01390022 10139 20017 58017

Tid: 11:13 (18:13 UTC)

Varsel

Denne rapporten ble laget for 53 minutter siden, klokken 17:20 UTC
Varsel gyldig fra 09. klokken 18 UTC til 10. klokken 18 UTC
Vind 5 kt fra skiftende retning
Sikt: 10 km
Få skyer i en høyde av 25000 ft
Fra 09. klokken 2200 UTC
Vind 9 kt fra Nordvest
Sikt: 10 km
Få skyer i en høyde av 25000 ft
Fra 10. klokken 1730 UTC
Vind 18 kt fra Nordvest med vindkast opp mot 26 kt
Sikt: 10 km
Spredte skyer i en høyde av 25000 ft

TAF: KDLS 091720Z 0918/1018 VRB05KT P6SM FEW250 FM092200 32009KT P6SM FEW250 FM101730 31018G26KT P6SM SCT250

Værobservasjoner og værvarsel for over 4000 flyplasser (METAR- og TAF-rapporter).

Tilgjengelige stasjoner er representert av de røde og gule prikkene på kartet.

Hold musepekeren over prikken for å se navnet på stasjonen.

Klikk så for å se værobservasjoner og -varsler.

For å forandre kartet kan du klikke på den grønne knappen med svart kryss for å zoome inn, på den grønne knappen med strek for å zoome ut, eller på de grønne pilene for å se tilstøtende kart.


METAR-TAF: